sensor_id;sensor_type;location;lat;lon;timestamp;pressure;altitude;pressure_sealevel;temperature;humidity
8101;BME280;4093;53.470;9.832;2023-02-20T00:01:22;101992.31;;;7.92;85.77
8101;BME280;4093;53.470;9.832;2023-02-20T00:03:51;101996.09;;;8.17;84.93
8101;BME280;4093;53.470;9.832;2023-02-20T00:06:19;101973.69;;;8.10;85.04
8101;BME280;4093;53.470;9.832;2023-02-20T00:08:47;101981.00;;;8.43;84.11
8101;BME280;4093;53.470;9.832;2023-02-20T00:11:14;101964.03;;;7.94;87.20
8101;BME280;4093;53.470;9.832;2023-02-20T00:13:44;101953.91;;;8.06;86.62
8101;BME280;4093;53.470;9.832;2023-02-20T00:16:12;101946.09;;;8.01;86.67
8101;BME280;4093;53.470;9.832;2023-02-20T00:18:40;101948.38;;;7.78;87.01
8101;BME280;4093;53.470;9.832;2023-02-20T00:21:09;101943.28;;;7.83;86.82
8101;BME280;4093;53.470;9.832;2023-02-20T00:23:36;101934.19;;;8.09;86.87
8101;BME280;4093;53.470;9.832;2023-02-20T00:26:07;101898.72;;;7.87;86.99
8101;BME280;4093;53.470;9.832;2023-02-20T00:28:37;101914.56;;;8.21;85.33
8101;BME280;4093;53.470;9.832;2023-02-20T00:31:05;101910.75;;;7.88;86.95
8101;BME280;4093;53.470;9.832;2023-02-20T00:33:33;101912.66;;;8.03;87.98
8101;BME280;4093;53.470;9.832;2023-02-20T00:36:02;101901.75;;;8.25;85.95
8101;BME280;4093;53.470;9.832;2023-02-20T00:38:31;101884.53;;;8.23;85.48
8101;BME280;4093;53.470;9.832;2023-02-20T00:40:59;101870.03;;;8.32;86.39
8101;BME280;4093;53.470;9.832;2023-02-20T00:43:26;101856.94;;;8.13;85.95
8101;BME280;4093;53.470;9.832;2023-02-20T00:45:54;101853.53;;;8.15;86.55
8101;BME280;4093;53.470;9.832;2023-02-20T00:48:22;101858.00;;;8.33;86.46
8101;BME280;4093;53.470;9.832;2023-02-20T00:50:49;101851.72;;;8.06;87.02
8101;BME280;4093;53.470;9.832;2023-02-20T00:53:20;101849.97;;;8.04;87.37
8101;BME280;4093;53.470;9.832;2023-02-20T00:55:49;101849.94;;;8.01;87.52
8101;BME280;4093;53.470;9.832;2023-02-20T00:58:16;101841.81;;;8.42;85.88
8101;BME280;4093;53.470;9.832;2023-02-20T01:00:44;101826.28;;;8.37;86.21
8101;BME280;4093;53.470;9.832;2023-02-20T01:03:13;101816.22;;;7.78;87.68
8101;BME280;4093;53.470;9.832;2023-02-20T01:05:41;101807.91;;;8.03;86.99
8101;BME280;4093;53.470;9.832;2023-02-20T01:08:09;101807.19;;;7.42;89.26
8101;BME280;4093;53.470;9.832;2023-02-20T01:10:36;101815.38;;;7.79;88.29
8101;BME280;4093;53.470;9.832;2023-02-20T01:13:06;101811.25;;;7.93;87.89
8101;BME280;4093;53.470;9.832;2023-02-20T01:15:34;101822.41;;;7.95;87.71
8101;BME280;4093;53.470;9.832;2023-02-20T01:18:02;101810.38;;;7.94;89.34
8101;BME280;4093;53.470;9.832;2023-02-20T01:20:31;101804.19;;;7.77;88.29
8101;BME280;4093;53.470;9.832;2023-02-20T01:22:59;101808.13;;;8.25;86.55
8101;BME280;4093;53.470;9.832;2023-02-20T01:25:26;101807.88;;;8.00;86.96
8101;BME280;4093;53.470;9.832;2023-02-20T01:27:54;101797.66;;;8.09;87.68
8101;BME280;4093;53.470;9.832;2023-02-20T01:30:23;101787.50;;;8.25;86.56
8101;BME280;4093;53.470;9.832;2023-02-20T01:32:52;101784.81;;;8.14;86.86
8101;BME280;4093;53.470;9.832;2023-02-20T01:35:20;101796.63;;;7.91;88.10
8101;BME280;4093;53.470;9.832;2023-02-20T01:37:49;101788.97;;;7.97;88.79
8101;BME280;4093;53.470;9.832;2023-02-20T01:40:18;101801.97;;;8.09;88.07
8101;BME280;4093;53.470;9.832;2023-02-20T01:42:47;101778.81;;;8.14;87.11
8101;BME280;4093;53.470;9.832;2023-02-20T01:45:17;101783.22;;;8.27;87.21
8101;BME280;4093;53.470;9.832;2023-02-20T01:47:49;101760.00;;;8.22;86.61
8101;BME280;4093;53.470;9.832;2023-02-20T01:50:19;101754.88;;;8.25;85.62
8101;BME280;4093;53.470;9.832;2023-02-20T01:52:50;101733.19;;;8.00;87.54
8101;BME280;4093;53.470;9.832;2023-02-20T01:55:22;101728.72;;;7.81;87.91
8101;BME280;4093;53.470;9.832;2023-02-20T01:57:52;101731.91;;;8.47;85.30
8101;BME280;4093;53.470;9.832;2023-02-20T02:00:23;101718.47;;;7.84;88.30
8101;BME280;4093;53.470;9.832;2023-02-20T02:02:59;101701.69;;;8.30;86.38
8101;BME280;4093;53.470;9.832;2023-02-20T02:05:30;101712.19;;;8.53;85.46
8101;BME280;4093;53.470;9.832;2023-02-20T02:07:59;101683.75;;;8.41;86.32
8101;BME280;4093;53.470;9.832;2023-02-20T02:10:31;101688.75;;;8.24;86.88
8101;BME280;4093;53.470;9.832;2023-02-20T02:13:02;101692.84;;;8.01;87.41
8101;BME280;4093;53.470;9.832;2023-02-20T02:15:30;101662.59;;;7.77;88.58
8101;BME280;4093;53.470;9.832;2023-02-20T02:18:11;101660.56;;;8.46;86.45
8101;BME280;4093;53.470;9.832;2023-02-20T02:21:16;101620.00;;;8.20;86.87
8101;BME280;4093;53.470;9.832;2023-02-20T02:27:04;101640.59;;;8.17;87.34
8101;BME280;4093;53.470;9.832;2023-02-20T02:29:54;101660.41;;;8.23;87.92
8101;BME280;4093;53.470;9.832;2023-02-20T02:33:08;101639.63;;;8.00;88.51
8101;BME280;4093;53.470;9.832;2023-02-20T02:36:19;101648.28;;;8.09;87.08
8101;BME280;4093;53.470;9.832;2023-02-20T02:38:58;101663.22;;;8.56;86.96
8101;BME280;4093;53.470;9.832;2023-02-20T02:41:34;101659.81;;;8.61;85.67
8101;BME280;4093;53.470;9.832;2023-02-20T02:44:10;101644.06;;;8.24;87.35
8101;BME280;4093;53.470;9.832;2023-02-20T02:46:42;101670.09;;;8.56;87.30
8101;BME280;4093;53.470;9.832;2023-02-20T02:49:16;101654.69;;;8.70;86.33
8101;BME280;4093;53.470;9.832;2023-02-20T02:51:48;101641.84;;;8.80;86.26
8101;BME280;4093;53.470;9.832;2023-02-20T02:54:18;101633.16;;;8.52;87.91
8101;BME280;4093;53.470;9.832;2023-02-20T02:56:52;101629.56;;;8.37;88.20
8101;BME280;4093;53.470;9.832;2023-02-20T02:59:24;101623.47;;;8.27;89.73
8101;BME280;4093;53.470;9.832;2023-02-20T03:01:58;101622.63;;;8.22;89.58
8101;BME280;4093;53.470;9.832;2023-02-20T03:04:29;101628.69;;;8.31;89.15
8101;BME280;4093;53.470;9.832;2023-02-20T03:07:05;101631.41;;;8.54;88.99
8101;BME280;4093;53.470;9.832;2023-02-20T03:09:36;101634.66;;;8.24;89.24
8101;BME280;4093;53.470;9.832;2023-02-20T03:12:06;101640.91;;;8.62;89.34
8101;BME280;4093;53.470;9.832;2023-02-20T03:14:39;101628.88;;;8.61;88.14
8101;BME280;4093;53.470;9.832;2023-02-20T03:17:29;101616.97;;;8.87;86.92
8101;BME280;4093;53.470;9.832;2023-02-20T03:20:00;101600.50;;;8.61;87.51
8101;BME280;4093;53.470;9.832;2023-02-20T03:22:33;101600.66;;;8.97;86.87
8101;BME280;4093;53.470;9.832;2023-02-20T03:25:05;101586.72;;;8.49;89.04
8101;BME280;4093;53.470;9.832;2023-02-20T03:27:39;101601.44;;;8.79;86.99
8101;BME280;4093;53.470;9.832;2023-02-20T03:30:12;101604.09;;;8.96;86.84
8101;BME280;4093;53.470;9.832;2023-02-20T03:32:43;101602.25;;;8.68;87.67
8101;BME280;4093;53.470;9.832;2023-02-20T03:35:33;101623.88;;;9.05;86.87
8101;BME280;4093;53.470;9.832;2023-02-20T03:38:23;101614.41;;;8.93;86.23
8101;BME280;4093;53.470;9.832;2023-02-20T03:41:09;101602.41;;;9.03;85.78
8101;BME280;4093;53.470;9.832;2023-02-20T03:43:58;101599.84;;;9.15;84.76
8101;BME280;4093;53.470;9.832;2023-02-20T03:46:30;101579.94;;;8.73;86.07
8101;BME280;4093;53.470;9.832;2023-02-20T03:49:03;101561.97;;;9.08;85.56
8101;BME280;4093;53.470;9.832;2023-02-20T03:51:32;101570.56;;;8.98;85.55
8101;BME280;4093;53.470;9.832;2023-02-20T03:54:18;101578.34;;;9.07;85.63
8101;BME280;4093;53.470;9.832;2023-02-20T03:56:48;101594.63;;;8.88;87.10
8101;BME280;4093;53.470;9.832;2023-02-20T03:59:21;101587.72;;;8.90;86.21
8101;BME280;4093;53.470;9.832;2023-02-20T04:01:52;101592.91;;;8.96;86.07
8101;BME280;4093;53.470;9.832;2023-02-20T04:04:24;101594.69;;;9.31;85.00
8101;BME280;4093;53.470;9.832;2023-02-20T04:06:53;101586.09;;;9.16;84.59
8101;BME280;4093;53.470;9.832;2023-02-20T04:09:26;101588.69;;;9.42;84.13
8101;BME280;4093;53.470;9.832;2023-02-20T04:11:59;101572.28;;;8.99;85.48
8101;BME280;4093;53.470;9.832;2023-02-20T04:14:31;101580.94;;;9.19;85.10
8101;BME280;4093;53.470;9.832;2023-02-20T04:17:02;101570.53;;;8.86;86.54
8101;BME280;4093;53.470;9.832;2023-02-20T04:19:32;101561.13;;;9.08;85.94
8101;BME280;4093;53.470;9.832;2023-02-20T04:22:02;101552.44;;;8.69;87.84
8101;BME280;4093;53.470;9.832;2023-02-20T04:24:35;101545.66;;;9.08;85.32
8101;BME280;4093;53.470;9.832;2023-02-20T04:27:04;101541.25;;;8.62;87.55
8101;BME280;4093;53.470;9.832;2023-02-20T04:29:32;101542.19;;;8.90;86.79
8101;BME280;4093;53.470;9.832;2023-02-20T04:32:00;101542.16;;;8.81;86.68
8101;BME280;4093;53.470;9.832;2023-02-20T04:34:28;101550.72;;;8.74;87.56
8101;BME280;4093;53.470;9.832;2023-02-20T04:37:04;101540.38;;;8.60;87.23
8101;BME280;4093;53.470;9.832;2023-02-20T04:39:33;101541.28;;;8.74;88.29
8101;BME280;4093;53.470;9.832;2023-02-20T04:42:01;101535.22;;;8.68;88.05
8101;BME280;4093;53.470;9.832;2023-02-20T04:44:29;101539.50;;;8.61;87.57
8101;BME280;4093;53.470;9.832;2023-02-20T04:47:02;101528.28;;;8.45;88.34
8101;BME280;4093;53.470;9.832;2023-02-20T04:49:30;101519.75;;;8.63;88.44
8101;BME280;4093;53.470;9.832;2023-02-20T04:51:58;101503.44;;;8.64;88.68
8101;BME280;4093;53.470;9.832;2023-02-20T04:54:26;101516.34;;;8.70;89.22
8101;BME280;4093;53.470;9.832;2023-02-20T04:56:55;101497.38;;;8.50;89.32
8101;BME280;4093;53.470;9.832;2023-02-20T04:59:23;101488.81;;;8.62;88.27
8101;BME280;4093;53.470;9.832;2023-02-20T05:01:50;101495.69;;;8.61;88.44
8101;BME280;4093;53.470;9.832;2023-02-20T05:04:21;101498.25;;;8.61;88.74
8101;BME280;4093;53.470;9.832;2023-02-20T05:06:51;101501.69;;;8.62;88.65
8101;BME280;4093;53.470;9.832;2023-02-20T05:09:20;101511.16;;;8.60;88.40
8101;BME280;4093;53.470;9.832;2023-02-20T05:11:48;101518.91;;;8.64;88.66
8101;BME280;4093;53.470;9.832;2023-02-20T05:14:17;101527.56;;;8.89;87.88
8101;BME280;4093;53.470;9.832;2023-02-20T05:16:46;101525.81;;;8.87;87.80
8101;BME280;4093;53.470;9.832;2023-02-20T05:19:14;101515.44;;;8.54;89.08
8101;BME280;4093;53.470;9.832;2023-02-20T05:21:42;101507.78;;;8.90;87.55
8101;BME280;4093;53.470;9.832;2023-02-20T05:24:28;101499.19;;;8.92;88.36
8101;BME280;4093;53.470;9.832;2023-02-20T05:26:57;101492.28;;;8.73;88.36
8101;BME280;4093;53.470;9.832;2023-02-20T05:29:27;101471.66;;;8.67;89.16
8101;BME280;4093;53.470;9.832;2023-02-20T05:31:54;101477.69;;;8.79;88.75
8101;BME280;4093;53.470;9.832;2023-02-20T05:34:22;101472.53;;;8.81;87.72
8101;BME280;4093;53.470;9.832;2023-02-20T05:36:51;101458.81;;;8.94;87.43
8101;BME280;4093;53.470;9.832;2023-02-20T05:39:20;101441.59;;;8.81;88.31
8101;BME280;4093;53.470;9.832;2023-02-20T05:41:47;101437.28;;;8.86;88.43
8101;BME280;4093;53.470;9.832;2023-02-20T05:44:15;101421.78;;;8.57;89.53
8101;BME280;4093;53.470;9.832;2023-02-20T05:46:44;101426.13;;;8.72;88.62
8101;BME280;4093;53.470;9.832;2023-02-20T05:49:12;101420.97;;;8.81;89.52
8101;BME280;4093;53.470;9.832;2023-02-20T05:51:40;101408.03;;;8.55;89.07
8101;BME280;4093;53.470;9.832;2023-02-20T05:54:08;101415.75;;;8.55;90.63
8101;BME280;4093;53.470;9.832;2023-02-20T05:56:40;101415.78;;;8.56;90.19
8101;BME280;4093;53.470;9.832;2023-02-20T05:59:08;101407.22;;;8.77;90.33
8101;BME280;4093;53.470;9.832;2023-02-20T06:01:36;101401.19;;;9.01;89.40
8101;BME280;4093;53.470;9.832;2023-02-20T06:04:05;101403.78;;;8.95;88.96
8101;BME280;4093;53.470;9.832;2023-02-20T06:06:34;101381.41;;;8.61;90.63
8101;BME280;4093;53.470;9.832;2023-02-20T06:09:04;101384.03;;;8.77;90.18
8101;BME280;4093;53.470;9.832;2023-02-20T06:11:33;101378.00;;;8.85;89.93
8101;BME280;4093;53.470;9.832;2023-02-20T06:14:03;101378.84;;;8.73;90.25
8101;BME280;4093;53.470;9.832;2023-02-20T06:16:32;101372.81;;;8.71;89.99
8101;BME280;4093;53.470;9.832;2023-02-20T06:19:01;101373.69;;;8.85;90.25
8101;BME280;4093;53.470;9.832;2023-02-20T06:21:32;101373.69;;;8.67;90.96
8101;BME280;4093;53.470;9.832;2023-02-20T06:24:01;101368.53;;;8.91;89.19
8101;BME280;4093;53.470;9.832;2023-02-20T06:26:28;101377.13;;;8.96;89.49
8101;BME280;4093;53.470;9.832;2023-02-20T06:28:56;101376.28;;;8.76;90.06
8101;BME280;4093;53.470;9.832;2023-02-20T06:31:25;101384.88;;;8.72;91.80
8101;BME280;4093;53.470;9.832;2023-02-20T06:33:54;101371.13;;;8.82;90.84
8101;BME280;4093;53.470;9.832;2023-02-20T06:36:23;101375.41;;;8.95;89.39
8101;BME280;4093;53.470;9.832;2023-02-20T06:38:52;101387.47;;;8.87;90.53
8101;BME280;4093;53.470;9.832;2023-02-20T06:41:23;101391.72;;;9.02;89.71
8101;BME280;4093;53.470;9.832;2023-02-20T06:43:51;101385.72;;;9.11;89.72
8101;BME280;4093;53.470;9.832;2023-02-20T06:46:18;101390.88;;;8.80;91.12
8101;BME280;4093;53.470;9.832;2023-02-20T06:48:50;101391.72;;;9.19;90.35
8101;BME280;4093;53.470;9.832;2023-02-20T06:51:19;101395.13;;;9.44;89.17
8101;BME280;4093;53.470;9.832;2023-02-20T06:53:47;101388.31;;;9.12;89.82
8101;BME280;4093;53.470;9.832;2023-02-20T06:56:19;101394.31;;;9.22;90.05
8101;BME280;4093;53.470;9.832;2023-02-20T06:58:48;101397.69;;;9.50;89.29
8101;BME280;4093;53.470;9.832;2023-02-20T07:01:18;101390.75;;;9.75;87.94
8101;BME280;4093;53.470;9.832;2023-02-20T07:03:48;101395.94;;;9.66;87.69
8101;BME280;4093;53.470;9.832;2023-02-20T07:06:17;101384.81;;;9.36;89.12
8101;BME280;4093;53.470;9.832;2023-02-20T07:08:44;101390.88;;;9.21;90.80
8101;BME280;4093;53.470;9.832;2023-02-20T07:11:13;101394.19;;;9.65;88.71
8101;BME280;4093;53.470;9.832;2023-02-20T07:13:44;101381.38;;;9.34;89.75
8101;BME280;4093;53.470;9.832;2023-02-20T07:16:12;101398.59;;;9.32;90.20
8101;BME280;4093;53.470;9.832;2023-02-20T07:18:41;101410.63;;;9.41;90.35
8101;BME280;4093;53.470;9.832;2023-02-20T07:21:08;101396.00;;;9.32;90.25
8101;BME280;4093;53.470;9.832;2023-02-20T07:23:36;101398.47;;;9.70;88.99
8101;BME280;4093;53.470;9.832;2023-02-20T07:26:04;101388.13;;;9.83;88.03
8101;BME280;4093;53.470;9.832;2023-02-20T07:28:33;101384.72;;;9.75;89.14
8101;BME280;4093;53.470;9.832;2023-02-20T07:31:03;101390.75;;;9.75;88.95
8101;BME280;4093;53.470;9.832;2023-02-20T07:33:30;101389.94;;;9.53;89.79
8101;BME280;4093;53.470;9.832;2023-02-20T07:35:58;101394.19;;;9.68;90.11
8101;BME280;4093;53.470;9.832;2023-02-20T07:38:26;101382.16;;;9.61;90.85
8101;BME280;4093;53.470;9.832;2023-02-20T07:40:54;101383.94;;;9.49;90.49
8101;BME280;4093;53.470;9.832;2023-02-20T07:43:21;101402.84;;;9.55;90.45
8101;BME280;4093;53.470;9.832;2023-02-20T07:45:49;101399.31;;;9.83;90.85
8101;BME280;4093;53.470;9.832;2023-02-20T07:48:18;101397.63;;;9.67;89.95
8101;BME280;4093;53.470;9.832;2023-02-20T07:50:46;101387.25;;;9.81;89.72
8101;BME280;4093;53.470;9.832;2023-02-20T07:53:16;101373.56;;;9.59;90.75
8101;BME280;4093;53.470;9.832;2023-02-20T07:55:45;101383.88;;;9.62;91.20
8101;BME280;4093;53.470;9.832;2023-02-20T07:58:13;101372.66;;;9.78;90.28
8101;BME280;4093;53.470;9.832;2023-02-20T08:00:40;101374.44;;;9.52;91.82
8101;BME280;4093;53.470;9.832;2023-02-20T08:03:08;101370.88;;;9.86;90.59
8101;BME280;4093;53.470;9.832;2023-02-20T08:05:37;101362.34;;;9.69;90.85
8101;BME280;4093;53.470;9.832;2023-02-20T08:08:14;101356.31;;;9.70;91.42
8101;BME280;4093;53.470;9.832;2023-02-20T08:10:42;101340.91;;;9.48;92.76
8101;BME280;4093;53.470;9.832;2023-02-20T08:13:09;101341.69;;;9.69;92.24
8101;BME280;4093;53.470;9.832;2023-02-20T08:15:37;101345.91;;;9.91;91.35
8101;BME280;4093;53.470;9.832;2023-02-20T08:18:06;101338.91;;;10.10;90.72
8101;BME280;4093;53.470;9.832;2023-02-20T08:20:48;101305.56;;;9.63;91.80
8101;BME280;4093;53.470;9.832;2023-02-20T08:23:19;101333.00;;;9.81;91.88
8101;BME280;4093;53.470;9.832;2023-02-20T08:25:47;101313.38;;;9.43;93.68
8101;BME280;4093;53.470;9.832;2023-02-20T08:28:15;101320.25;;;9.50;94.26
8101;BME280;4093;53.470;9.832;2023-02-20T08:30:43;101312.31;;;9.91;93.58
8101;BME280;4093;53.470;9.832;2023-02-20T08:33:12;101303.75;;;9.83;93.03
8101;BME280;4093;53.470;9.832;2023-02-20T08:35:40;101312.25;;;9.99;92.97
8101;BME280;4093;53.470;9.832;2023-02-20T08:38:23;101313.94;;;10.12;92.00
8101;BME280;4093;53.470;9.832;2023-02-20T08:40:51;101295.13;;;9.87;93.13
8101;BME280;4093;53.470;9.832;2023-02-20T08:43:19;101302.94;;;9.75;94.43
8101;BME280;4093;53.470;9.832;2023-02-20T08:45:47;101297.03;;;9.45;95.99
8101;BME280;4093;53.470;9.832;2023-02-20T08:48:15;101308.09;;;9.78;95.33
8101;BME280;4093;53.470;9.832;2023-02-20T08:50:43;101299.56;;;9.58;95.74
8101;BME280;4093;53.470;9.832;2023-02-20T08:53:12;101306.19;;;10.08;94.86
8101;BME280;4093;53.470;9.832;2023-02-20T08:55:41;101303.75;;;9.83;95.36
8101;BME280;4093;53.470;9.832;2023-02-20T08:58:10;101307.91;;;10.06;95.00
8101;BME280;4093;53.470;9.832;2023-02-20T09:00:38;101293.75;;;10.63;92.54
8101;BME280;4093;53.470;9.832;2023-02-20T09:03:05;101283.75;;;10.16;93.68
8101;BME280;4093;53.470;9.832;2023-02-20T09:05:34;101240.78;;;10.01;94.43
8101;BME280;4093;53.470;9.832;2023-02-20T09:08:04;101269.06;;;10.19;94.39
8101;BME280;4093;53.470;9.832;2023-02-20T09:10:32;101259.66;;;10.12;93.87
8101;BME280;4093;53.470;9.832;2023-02-20T09:13:02;101260.63;;;9.96;95.45
8101;BME280;4093;53.470;9.832;2023-02-20T09:15:30;101272.50;;;10.23;94.72
8101;BME280;4093;53.470;9.832;2023-02-20T09:18:05;101271.63;;;10.27;95.86
8101;BME280;4093;53.470;9.832;2023-02-20T09:20:36;101264.75;;;10.20;95.69
8101;BME280;4093;53.470;9.832;2023-02-20T09:23:04;101269.81;;;10.41;94.35
8101;BME280;4093;53.470;9.832;2023-02-20T09:25:33;101253.59;;;10.16;96.52
8101;BME280;4093;53.470;9.832;2023-02-20T09:28:03;101254.44;;;10.22;96.40
8101;BME280;4093;53.470;9.832;2023-02-20T09:30:31;101245.84;;;10.16;97.16
8101;BME280;4093;53.470;9.832;2023-02-20T09:32:59;101249.34;;;10.08;97.81
8101;BME280;4093;53.470;9.832;2023-02-20T09:35:29;101256.91;;;10.35;97.52
8101;BME280;4093;53.470;9.832;2023-02-20T09:37:57;101245.69;;;10.41;96.38
8101;BME280;4093;53.470;9.832;2023-02-20T09:40:27;101244.19;;;10.08;98.07
8101;BME280;4093;53.470;9.832;2023-02-20T09:43:13;101244.19;;;10.06;97.92
8101;BME280;4093;53.470;9.832;2023-02-20T09:45:50;101261.22;;;10.33;97.19
8101;BME280;4093;53.470;9.832;2023-02-20T09:48:30;101242.28;;;10.37;97.19
8101;BME280;4093;53.470;9.832;2023-02-20T09:51:08;101233.75;;;10.20;97.43
8101;BME280;4093;53.470;9.832;2023-02-20T09:53:41;101243.03;;;10.47;96.69
8101;BME280;4093;53.470;9.832;2023-02-20T09:56:17;101220.97;;;10.02;98.12
8101;BME280;4093;53.470;9.832;2023-02-20T09:58:52;101225.78;;;10.51;97.21
8101;BME280;4093;53.470;9.832;2023-02-20T10:01:25;101241.38;;;10.37;97.24
8101;BME280;4093;53.470;9.832;2023-02-20T10:03:56;101219.91;;;10.24;97.58
8101;BME280;4093;53.470;9.832;2023-02-20T10:06:26;101226.56;;;10.57;97.19
8101;BME280;4093;53.470;9.832;2023-02-20T10:08:54;101210.16;;;10.58;97.40
8101;BME280;4093;53.470;9.832;2023-02-20T10:11:32;101225.66;;;10.63;97.34
8101;BME280;4093;53.470;9.832;2023-02-20T10:14:25;101231.44;;;10.88;95.35
8101;BME280;4093;53.470;9.832;2023-02-20T10:17:02;101253.03;;;10.81;96.90
8101;BME280;4093;53.470;9.832;2023-02-20T10:19:37;101233.25;;;10.78;95.94
8101;BME280;4093;53.470;9.832;2023-02-20T10:22:12;101204.81;;;10.77;96.37
8101;BME280;4093;53.470;9.832;2023-02-20T10:24:49;101234.22;;;10.67;97.58
8101;BME280;4093;53.470;9.832;2023-02-20T10:27:26;101208.41;;;10.62;96.74
8101;BME280;4093;53.470;9.832;2023-02-20T10:29:59;101213.34;;;10.85;95.93
8101;BME280;4093;53.470;9.832;2023-02-20T10:32:35;101220.34;;;10.74;96.24
8101;BME280;4093;53.470;9.832;2023-02-20T10:35:07;101223.53;;;10.99;95.81
8101;BME280;4093;53.470;9.832;2023-02-20T10:37:39;101200.19;;;11.05;94.85
8101;BME280;4093;53.470;9.832;2023-02-20T10:40:19;101203.72;;;10.98;95.91
8101;BME280;4093;53.470;9.832;2023-02-20T10:42:54;101201.16;;;10.95;95.79
8101;BME280;4093;53.470;9.832;2023-02-20T10:45:35;101202.13;;;10.87;95.58
8101;BME280;4093;53.470;9.832;2023-02-20T10:48:06;101208.50;;;11.31;93.70
8101;BME280;4093;53.470;9.832;2023-02-20T10:50:38;101203.75;;;10.95;95.02
8101;BME280;4093;53.470;9.832;2023-02-20T10:53:17;101217.19;;;11.26;95.47
8101;BME280;4093;53.470;9.832;2023-02-20T10:55:50;101201.28;;;11.52;93.03
8101;BME280;4093;53.470;9.832;2023-02-20T10:58:22;101205.69;;;11.45;93.28
8101;BME280;4093;53.470;9.832;2023-02-20T11:00:56;101193.66;;;11.44;93.08
8101;BME280;4093;53.470;9.832;2023-02-20T11:03:30;101198.00;;;11.41;93.55
8101;BME280;4093;53.470;9.832;2023-02-20T11:06:01;101201.06;;;11.67;92.96
8101;BME280;4093;53.470;9.832;2023-02-20T11:08:31;101191.91;;;11.45;93.23
8101;BME280;4093;53.470;9.832;2023-02-20T11:11:04;101191.44;;;11.14;95.45
8101;BME280;4093;53.470;9.832;2023-02-20T11:13:44;101194.97;;;11.09;94.33
8101;BME280;4093;53.470;9.832;2023-02-20T11:16:20;101214.09;;;10.95;96.39
8101;BME280;4093;53.470;9.832;2023-02-20T11:19:02;101190.97;;;11.49;93.76
8101;BME280;4093;53.470;9.832;2023-02-20T11:21:35;101212.53;;;11.51;93.15
8101;BME280;4093;53.470;9.832;2023-02-20T11:24:17;101204.63;;;11.60;93.35
8101;BME280;4093;53.470;9.832;2023-02-20T11:26:47;101197.59;;;11.68;93.28
8101;BME280;4093;53.470;9.832;2023-02-20T11:29:19;101195.22;;;11.53;93.67
8101;BME280;4093;53.470;9.832;2023-02-20T11:31:49;101195.94;;;11.64;92.29
8101;BME280;4093;53.470;9.832;2023-02-20T11:34:19;101201.22;;;11.58;92.95
8101;BME280;4093;53.470;9.832;2023-02-20T11:36:50;101197.56;;;11.71;92.55
8101;BME280;4093;53.470;9.832;2023-02-20T11:39:21;101196.03;;;11.58;92.49
8101;BME280;4093;53.470;9.832;2023-02-20T11:42:04;101187.16;;;11.74;92.19
8101;BME280;4093;53.470;9.832;2023-02-20T11:44:32;101178.84;;;11.52;92.50
8101;BME280;4093;53.470;9.832;2023-02-20T11:47:23;101195.66;;;11.82;91.49
8101;BME280;4093;53.470;9.832;2023-02-20T11:50:14;101197.25;;;11.94;91.50
8101;BME280;4093;53.470;9.832;2023-02-20T11:53:00;101186.03;;;11.92;90.52
8101;BME280;4093;53.470;9.832;2023-02-20T11:55:30;101176.59;;;11.90;90.60
8101;BME280;4093;53.470;9.832;2023-02-20T11:57:59;101176.13;;;12.17;89.55
8101;BME280;4093;53.470;9.832;2023-02-20T12:00:29;101191.03;;;12.03;89.34
8101;BME280;4093;53.470;9.832;2023-02-20T12:03:12;101181.00;;;11.85;90.62
8101;BME280;4093;53.470;9.832;2023-02-20T12:05:41;101160.72;;;12.08;89.14
8101;BME280;4093;53.470;9.832;2023-02-20T12:08:42;101158.97;;;12.10;89.41
8101;BME280;4093;53.470;9.832;2023-02-20T12:11:15;101159.19;;;11.98;89.85
8101;BME280;4093;53.470;9.832;2023-02-20T12:13:45;101154.72;;;12.06;89.07
8101;BME280;4093;53.470;9.832;2023-02-20T12:16:31;101148.63;;;12.10;88.74
8101;BME280;4093;53.470;9.832;2023-02-20T12:19:11;101155.34;;;12.20;88.99
8101;BME280;4093;53.470;9.832;2023-02-20T12:21:51;101148.13;;;11.87;89.05
8101;BME280;4093;53.470;9.832;2023-02-20T12:24:34;101145.13;;;12.13;87.90
8101;BME280;4093;53.470;9.832;2023-02-20T12:27:17;101127.81;;;12.13;88.04
8101;BME280;4093;53.470;9.832;2023-02-20T12:29:52;101134.44;;;12.30;88.70
8101;BME280;4093;53.470;9.832;2023-02-20T12:32:33;101133.88;;;12.12;89.16
8101;BME280;4093;53.470;9.832;2023-02-20T12:35:20;101115.88;;;12.03;89.02
8101;BME280;4093;53.470;9.832;2023-02-20T12:37:59;101115.94;;;12.00;88.85
8101;BME280;4093;53.470;9.832;2023-02-20T12:40:38;101123.28;;;12.26;87.55
8101;BME280;4093;53.470;9.832;2023-02-20T12:43:16;101119.19;;;12.13;88.13
8101;BME280;4093;53.470;9.832;2023-02-20T12:45:57;101118.88;;;12.30;86.74
8101;BME280;4093;53.470;9.832;2023-02-20T12:48:38;101117.81;;;12.41;86.72
8101;BME280;4093;53.470;9.832;2023-02-20T12:51:16;101110.25;;;12.27;87.01
8101;BME280;4093;53.470;9.832;2023-02-20T12:53:58;101117.13;;;12.32;87.53
8101;BME280;4093;53.470;9.832;2023-02-20T12:56:47;101106.25;;;12.13;87.10
8101;BME280;4093;53.470;9.832;2023-02-20T12:59:24;101114.53;;;12.32;88.23
8101;BME280;4093;53.470;9.832;2023-02-20T13:01:54;101120.09;;;12.09;87.88
8101;BME280;4093;53.470;9.832;2023-02-20T13:04:31;101122.31;;;12.30;87.51
8101;BME280;4093;53.470;9.832;2023-02-20T13:07:05;101121.03;;;12.53;87.31
8101;BME280;4093;53.470;9.832;2023-02-20T13:09:41;101117.81;;;12.41;87.74
8101;BME280;4093;53.470;9.832;2023-02-20T13:12:13;101113.53;;;12.39;87.71
8101;BME280;4093;53.470;9.832;2023-02-20T13:14:54;101100.44;;;11.97;89.79
8101;BME280;4093;53.470;9.832;2023-02-20T13:17:32;101116.00;;;12.45;87.05
8101;BME280;4093;53.470;9.832;2023-02-20T13:20:14;101106.41;;;12.03;88.49
8101;BME280;4093;53.470;9.832;2023-02-20T13:22:57;101115.38;;;12.31;88.31
8101;BME280;4093;53.470;9.832;2023-02-20T13:25:46;101112.13;;;12.21;87.67
8101;BME280;4093;53.470;9.832;2023-02-20T13:28:22;101120.63;;;12.27;87.96
8101;BME280;4093;53.470;9.832;2023-02-20T13:31:22;101115.44;;;12.27;88.26
8101;BME280;4093;53.470;9.832;2023-02-20T13:34:24;101098.69;;;11.99;89.46
8101;BME280;4093;53.470;9.832;2023-02-20T13:36:52;101127.59;;;12.25;88.86
8101;BME280;4093;53.470;9.832;2023-02-20T13:39:40;101124.59;;;12.47;88.15
8101;BME280;4093;53.470;9.832;2023-02-20T13:42:29;101120.78;;;12.18;89.00
8101;BME280;4093;53.470;9.832;2023-02-20T13:44:57;101118.88;;;12.30;88.20
8101;BME280;4093;53.470;9.832;2023-02-20T13:47:32;101124.13;;;12.25;88.91
8101;BME280;4093;53.470;9.832;2023-02-20T13:50:01;101126.31;;;12.00;89.68